createdAt,value
2023-05-25T00:07:40.907Z,13.19
2023-05-25T00:16:04.057Z,13.06
2023-05-25T00:24:26.924Z,12.93
2023-05-25T00:32:49.820Z,12.77
2023-05-25T00:41:13.748Z,12.65
2023-05-25T00:49:36.916Z,12.59
2023-05-25T00:58:01.427Z,12.48
2023-05-25T01:06:27.373Z,12.37
2023-05-25T01:14:53.472Z,12.28
2023-05-25T01:23:20.691Z,12.24
2023-05-25T01:31:45.575Z,12.22
2023-05-25T01:40:09.718Z,12.21
2023-05-25T01:48:51.098Z,12.22
2023-05-25T01:57:17.005Z,12.20
2023-05-25T02:05:46.510Z,12.17
2023-05-25T02:14:11.225Z,12.16
2023-05-25T02:22:35.113Z,12.15
2023-05-25T02:30:58.016Z,12.15
2023-05-25T02:39:21.102Z,12.19
2023-05-25T02:47:44.673Z,12.15
2023-05-25T02:56:10.417Z,12.15
2023-05-25T03:04:38.016Z,12.17
2023-05-25T03:13:01.593Z,12.18
2023-05-25T03:21:24.954Z,12.19
2023-05-25T03:29:51.640Z,12.19
2023-05-25T03:38:14.670Z,12.19
2023-05-25T03:46:38.660Z,12.17
2023-05-25T03:55:01.984Z,12.17
2023-05-25T04:03:25.206Z,12.18
2023-05-25T04:11:48.450Z,12.26
2023-05-25T04:20:12.230Z,12.31
2023-05-25T04:28:37.347Z,12.38
2023-05-25T04:37:09.393Z,12.41
2023-05-25T04:45:33.672Z,12.44
2023-05-25T04:53:59.764Z,12.45
2023-05-25T05:02:25.941Z,12.50
2023-05-25T05:10:50.605Z,12.56
2023-05-25T05:19:14.347Z,12.56
2023-05-25T05:27:37.622Z,12.56
2023-05-25T05:36:11.097Z,12.62
2023-05-25T05:44:36.287Z,12.72
2023-05-25T05:52:59.431Z,12.79
2023-05-25T06:01:22.566Z,12.85
2023-05-25T06:09:46.225Z,12.88
2023-05-25T06:18:10.113Z,13.01
2023-05-25T06:26:33.697Z,13.10
2023-05-25T06:34:57.049Z,13.19
2023-05-25T06:43:21.448Z,13.27
2023-05-25T06:52:05.166Z,13.40
2023-05-25T07:00:28.127Z,13.43
2023-05-25T07:08:52.226Z,13.44
2023-05-25T07:17:16.032Z,13.52
2023-05-25T07:25:39.892Z,13.62
2023-05-25T07:34:04.454Z,13.78
2023-05-25T07:42:33.935Z,13.93
2023-05-25T07:50:57.636Z,14.07
2023-05-25T07:59:20.944Z,14.17
2023-05-25T08:07:46.072Z,14.32
2023-05-25T08:16:09.769Z,14.51
2023-05-25T08:24:34.168Z,14.66
2023-05-25T08:32:57.916Z,14.83
2023-05-25T08:41:23.919Z,14.97
2023-05-25T08:49:51.008Z,15.18
2023-05-25T08:58:19.783Z,15.38
2023-05-25T09:06:57.216Z,15.63
2023-05-25T09:15:29.415Z,15.85
2023-05-25T09:23:53.049Z,16.16
2023-05-25T09:32:17.628Z,16.44
2023-05-25T09:40:41.343Z,16.54
2023-05-25T09:49:08.820Z,16.74
2023-05-25T09:57:31.915Z,16.96
2023-05-25T10:05:56.561Z,17.25
2023-05-25T10:14:30.386Z,17.79
2023-05-25T10:23:11.401Z,18.47
2023-05-25T10:31:37.941Z,18.91
2023-05-25T10:40:02.869Z,19.49
2023-05-25T10:48:36.715Z,20.09
2023-05-25T10:57:17.907Z,20.61
2023-05-25T11:05:40.900Z,21.19
2023-05-25T11:14:22.266Z,21.62
2023-05-25T11:22:45.508Z,21.68
2023-05-25T11:31:09.767Z,21.71
2023-05-25T11:39:32.817Z,21.58
2023-05-25T11:47:57.097Z,21.93
2023-05-25T11:56:34.333Z,22.10
2023-05-25T12:05:03.864Z,22.19
2023-05-25T12:13:27.443Z,22.52
2023-05-25T12:21:51.970Z,22.69
2023-05-25T12:30:15.734Z,22.65
2023-05-25T12:38:38.853Z,22.79
2023-05-25T12:47:19.779Z,22.78
2023-05-25T12:55:43.182Z,22.51
2023-05-25T13:04:06.528Z,22.12
2023-05-25T13:12:29.569Z,21.98
2023-05-25T13:20:55.856Z,22.00
2023-05-25T13:29:20.212Z,22.28
2023-05-25T13:37:43.168Z,22.74
2023-05-25T13:46:06.202Z,23.05
2023-05-25T13:54:29.178Z,23.15
2023-05-25T14:02:52.324Z,23.15
2023-05-25T14:11:17.123Z,23.18
2023-05-25T14:19:40.219Z,23.08
2023-05-25T14:28:03.694Z,22.79
2023-05-25T14:36:26.639Z,22.56
2023-05-25T14:44:49.781Z,22.45
2023-05-25T14:53:12.776Z,22.27
2023-05-25T15:01:36.074Z,22.34
2023-05-25T15:09:59.260Z,22.44
2023-05-25T15:18:22.291Z,22.35
2023-05-25T15:26:45.340Z,22.46
2023-05-25T15:35:08.705Z,22.33
2023-05-25T15:43:31.609Z,22.19
2023-05-25T15:51:56.268Z,22.09
2023-05-25T16:00:19.593Z,22.00
2023-05-25T16:08:42.658Z,21.84
2023-05-25T16:25:55.209Z,21.68
2023-05-25T16:34:18.453Z,21.59
2023-05-25T16:42:42.115Z,21.35
2023-05-25T16:51:06.353Z,21.19
2023-05-25T16:59:29.572Z,21.14
2023-05-25T17:07:52.699Z,21.21
2023-05-25T17:16:15.719Z,21.26
2023-05-25T17:24:39.013Z,21.15
2023-05-25T17:33:02.200Z,20.96
2023-05-25T17:41:26.395Z,20.73
2023-05-25T17:49:50.963Z,20.48
2023-05-25T17:58:14.005Z,20.27
2023-05-25T18:06:37.277Z,20.08
2023-05-25T18:15:03.183Z,19.83
2023-05-25T18:23:26.488Z,19.49
2023-05-25T18:31:50.546Z,19.18
2023-05-25T18:40:14.064Z,18.92
2023-05-25T18:48:38.688Z,18.65
2023-05-25T18:57:03.186Z,18.34
2023-05-25T19:05:26.502Z,18.07
2023-05-25T19:13:49.787Z,17.86
2023-05-25T19:22:13.160Z,17.58
2023-05-25T19:30:36.503Z,17.31
2023-05-25T19:38:59.565Z,17.14
2023-05-25T19:47:23.404Z,16.95
2023-05-25T19:55:46.741Z,16.77
2023-05-25T20:04:10.112Z,16.65
2023-05-25T20:12:33.687Z,16.53
2023-05-25T20:20:57.953Z,16.44
2023-05-25T20:29:21.606Z,16.43
2023-05-25T20:37:44.879Z,16.42
2023-05-25T20:46:09.697Z,16.34
2023-05-25T20:54:33.535Z,16.24
2023-05-25T21:02:56.549Z,16.17
2023-05-25T21:11:21.119Z,16.10
2023-05-25T21:19:44.229Z,16.02
2023-05-25T21:28:09.189Z,15.98
2023-05-25T21:36:32.511Z,15.95
2023-05-25T21:44:55.681Z,15.83
2023-05-25T21:53:19.927Z,15.71
2023-05-25T22:01:42.950Z,15.59
2023-05-25T22:10:06.852Z,15.50
2023-05-25T22:18:29.978Z,15.40
2023-05-25T22:26:52.916Z,15.20
2023-05-25T22:35:16.027Z,14.95
2023-05-25T22:43:39.009Z,14.75
2023-05-25T22:52:02.074Z,14.63
2023-05-25T23:00:25.760Z,14.53
2023-05-25T23:08:48.726Z,14.33
2023-05-25T23:17:12.445Z,14.20
2023-05-25T23:25:37.526Z,14.08
2023-05-25T23:34:01.378Z,13.95
2023-05-25T23:42:28.192Z,13.78
2023-05-25T23:50:51.123Z,13.64
2023-05-25T23:59:15.225Z,13.51
